createdAt,value
2023-02-14T00:01:54.225Z,100280.06
2023-02-14T00:04:21.114Z,100146.84
2023-02-14T00:06:48.084Z,100263.81
2023-02-14T00:09:17.636Z,100125.47
2023-02-14T00:11:44.885Z,100141.47
2023-02-14T00:14:13.258Z,100275.91
2023-02-14T00:16:40.040Z,100201.41
2023-02-14T00:19:06.743Z,100275.53
2023-02-14T00:21:35.991Z,100275.78
2023-02-14T00:24:05.487Z,100236.22
2023-02-14T00:26:32.167Z,100283.19
2023-02-14T00:28:59.128Z,100277.97
2023-02-14T00:31:25.881Z,100186.91
2023-02-14T00:33:52.775Z,100281.69
2023-02-14T00:36:21.218Z,100173.09
2023-02-14T00:38:49.795Z,100236.84
2023-02-14T00:41:16.707Z,100146.34
2023-02-14T00:43:46.420Z,100279.69
2023-02-14T00:46:20.493Z,100210.41
2023-02-14T00:48:47.721Z,100286.94
2023-02-14T00:51:15.278Z,100286.09
2023-02-14T00:53:43.184Z,100239.38
2023-02-14T00:56:10.131Z,100274.03
2023-02-14T00:58:36.869Z,100215.13
2023-02-14T01:01:04.034Z,100287.28
2023-02-14T01:03:31.112Z,100243.16
2023-02-14T01:05:57.793Z,100152.22
2023-02-14T01:08:28.898Z,100167.66
2023-02-14T01:11:32.967Z,100292.75
2023-02-14T01:14:20.064Z,100252.41
2023-02-14T01:19:39.338Z,100295.28
2023-02-14T01:22:07.291Z,100294.50
2023-02-14T01:24:34.019Z,100050.44
2023-02-14T01:27:00.971Z,100238.72
2023-02-14T01:29:27.989Z,100286.78
2023-02-14T01:31:55.045Z,100210.69
2023-02-14T01:34:24.947Z,100161.72
2023-02-14T01:36:51.826Z,100209.34
2023-02-14T01:39:18.689Z,100072.72
2023-02-14T01:41:47.545Z,100221.25
2023-02-14T01:44:17.042Z,100273.53
2023-02-14T01:46:45.780Z,100137.94
2023-02-14T01:49:20.648Z,100231.91
2023-02-14T01:51:52.871Z,100204.97
2023-02-14T01:54:23.279Z,100010.47
2023-02-14T01:56:56.867Z,99847.47
2023-02-14T01:59:26.887Z,100212.44
2023-02-14T02:01:54.654Z,100228.34
2023-02-14T02:04:34.631Z,100276.38
2023-02-14T02:07:06.133Z,100280.06
2023-02-14T02:09:37.697Z,100116.06
2023-02-14T02:12:04.801Z,100284.81
2023-02-14T02:14:32.185Z,100238.81
2023-02-14T02:17:53.467Z,100283.16
2023-02-14T02:20:40.886Z,100278.38
2023-02-14T02:23:45.593Z,100271.81
2023-02-14T02:26:49.926Z,100269.59
2023-02-14T02:29:56.301Z,100109.16
2023-02-14T02:33:07.788Z,100271.06
2023-02-14T02:35:46.744Z,100263.09
2023-02-14T02:38:22.636Z,100255.19
2023-02-14T02:41:27.077Z,100252.88
2023-02-14T02:44:09.129Z,100252.69
2023-02-14T02:46:57.285Z,100261.56
2023-02-14T02:49:54.304Z,100261.63
2023-02-14T02:52:30.737Z,100217.13
2023-02-14T02:55:06.541Z,100197.72
2023-02-14T02:57:39.526Z,100265.41
2023-02-14T03:00:12.079Z,100267.78
2023-02-14T03:02:49.313Z,100238.56
2023-02-14T03:05:16.829Z,100137.97
2023-02-14T03:07:43.549Z,100227.47
2023-02-14T03:10:25.833Z,100229.91
2023-02-14T03:13:17.237Z,100261.69
2023-02-14T03:16:08.837Z,100263.78
2023-02-14T03:19:13.132Z,100270.63
2023-02-14T03:22:06.771Z,100233.41
2023-02-14T03:25:29.708Z,100257.47
2023-02-14T03:28:12.098Z,100270.47
2023-02-14T03:31:02.805Z,100271.09
2023-02-14T03:33:53.161Z,100241.91
2023-02-14T03:36:40.998Z,100258.53
2023-02-14T03:39:20.901Z,100203.63
2023-02-14T03:41:53.757Z,100243.59
2023-02-14T03:44:26.470Z,100246.22
2023-02-14T03:46:59.439Z,100254.66
2023-02-14T03:49:31.134Z,100243.78
2023-02-14T03:52:02.059Z,100179.72
2023-02-14T03:54:30.774Z,100248.78
2023-02-14T03:57:11.886Z,100209.84
2023-02-14T03:59:39.044Z,100080.16
2023-02-14T04:02:18.990Z,100155.69
2023-02-14T04:04:49.987Z,100254.31
2023-02-14T04:07:19.401Z,100139.03
2023-02-14T04:09:46.297Z,99990.84
2023-02-14T04:12:14.265Z,100247.78
2023-02-14T04:14:41.508Z,100183.78
2023-02-14T04:17:08.343Z,99964.94
2023-02-14T04:19:35.095Z,100196.00
2023-02-14T04:22:01.870Z,100120.13
2023-02-14T04:24:28.632Z,100196.81
2023-02-14T04:26:55.327Z,100195.06
2023-02-14T04:29:22.176Z,100235.22
2023-02-14T04:31:49.242Z,100144.09
2023-02-14T04:34:16.072Z,100027.47
2023-02-14T04:36:42.800Z,100264.69
2023-02-14T04:39:09.442Z,100252.63
2023-02-14T04:41:36.211Z,100247.22
2023-02-14T04:44:03.009Z,100132.41
2023-02-14T04:46:29.739Z,100140.50
2023-02-14T04:48:56.371Z,100198.81
2023-02-14T04:51:23.146Z,100241.03
2023-02-14T04:53:49.747Z,100244.84
2023-02-14T04:56:16.585Z,100237.59
2023-02-14T04:58:43.356Z,100238.28
2023-02-14T05:01:10.325Z,99955.06
2023-02-14T05:03:37.037Z,100181.81
2023-02-14T05:06:03.962Z,100179.88
2023-02-14T05:08:30.657Z,100178.41
2023-02-14T05:10:57.523Z,99852.84
2023-02-14T05:13:24.358Z,100225.28
2023-02-14T05:15:51.177Z,99941.63
2023-02-14T05:18:17.830Z,100151.09
2023-02-14T05:20:44.935Z,100240.97
2023-02-14T05:23:11.629Z,99884.25
2023-02-14T05:25:38.255Z,100174.41
2023-02-14T05:28:05.126Z,100136.34
2023-02-14T05:30:32.375Z,100177.03
2023-02-14T05:33:00.859Z,100224.16
2023-02-14T05:35:28.242Z,100127.03
2023-02-14T05:37:55.391Z,100194.41
2023-02-14T05:42:48.972Z,100227.72
2023-02-14T05:45:15.973Z,100220.03
2023-02-14T05:47:43.024Z,100167.75
2023-02-14T05:50:10.944Z,100190.81
2023-02-14T05:52:38.145Z,100014.41
2023-02-14T05:55:05.390Z,100226.06
2023-02-14T05:57:32.368Z,100229.75
2023-02-14T05:59:59.091Z,100186.69
2023-02-14T06:02:25.773Z,100103.13
2023-02-14T06:04:52.661Z,100116.72
2023-02-14T06:07:19.427Z,100240.09
2023-02-14T06:09:46.194Z,100159.00
2023-02-14T06:12:12.825Z,100173.13
2023-02-14T06:14:39.488Z,99900.25
2023-02-14T06:17:06.115Z,100071.59
2023-02-14T06:19:32.920Z,100173.25
2023-02-14T06:21:59.560Z,100115.34
2023-02-14T06:24:26.258Z,100141.66
2023-02-14T06:26:53.355Z,100161.09
2023-02-14T06:29:20.152Z,100109.72
2023-02-14T06:31:47.191Z,100231.97
2023-02-14T06:34:15.939Z,100119.50
2023-02-14T06:36:43.063Z,100235.97
2023-02-14T06:39:09.784Z,100211.63
2023-02-14T06:41:36.558Z,100240.91
2023-02-14T06:44:03.313Z,99873.72
2023-02-14T06:46:30.146Z,100247.72
2023-02-14T06:48:56.927Z,100174.66
2023-02-14T06:51:24.129Z,100200.22
2023-02-14T06:53:51.286Z,100208.25
2023-02-14T06:56:18.060Z,100134.69
2023-02-14T06:58:44.885Z,100068.38
2023-02-14T07:01:11.524Z,100108.63
2023-02-14T07:03:38.556Z,100244.63
2023-02-14T07:06:05.455Z,100112.41
2023-02-14T07:08:32.365Z,100132.69
2023-02-14T07:10:59.508Z,100190.63
2023-02-14T07:13:26.727Z,100247.25
2023-02-14T07:15:53.515Z,100099.50
2023-02-14T07:18:20.302Z,100112.28
2023-02-14T07:20:47.046Z,100199.84
2023-02-14T07:23:13.836Z,100246.53
2023-02-14T07:25:40.745Z,99715.88
2023-02-14T07:28:08.020Z,100122.56
2023-02-14T07:30:35.001Z,100171.84
2023-02-14T07:33:01.903Z,100208.47
2023-02-14T07:35:28.674Z,99905.09
2023-02-14T07:37:55.420Z,100122.72
2023-02-14T07:40:22.406Z,100178.91
2023-02-14T07:42:53.422Z,100239.00
2023-02-14T07:45:22.189Z,100191.59
2023-02-14T07:47:51.798Z,100232.81
2023-02-14T07:50:19.741Z,100179.47
2023-02-14T07:52:46.508Z,99953.88
2023-02-14T07:55:13.683Z,100216.66
2023-02-14T07:57:41.997Z,100234.31
2023-02-14T08:00:10.624Z,100225.41
2023-02-14T08:02:46.910Z,100169.84
2023-02-14T08:05:20.585Z,99907.13
2023-02-14T08:07:47.580Z,100197.25
2023-02-14T08:10:15.061Z,100187.03
2023-02-14T08:12:42.343Z,99914.13
2023-02-14T08:15:09.758Z,99874.38
2023-02-14T08:17:36.719Z,99872.41
2023-02-14T08:20:03.574Z,100086.19
2023-02-14T08:22:30.478Z,100182.97
2023-02-14T08:25:28.140Z,100233.72
2023-02-14T08:27:54.996Z,100021.78
2023-02-14T08:30:22.368Z,100121.50
2023-02-14T08:32:49.302Z,100173.88
2023-02-14T08:35:16.172Z,100223.47
2023-02-14T08:37:44.581Z,100085.19
2023-02-14T08:40:11.571Z,100176.91
2023-02-14T08:42:38.458Z,100225.13
2023-02-14T08:45:05.749Z,100033.13
2023-02-14T08:47:33.440Z,100161.94
2023-02-14T08:50:00.239Z,99955.34
2023-02-14T08:52:26.912Z,100076.56
2023-02-14T08:54:53.613Z,100163.69
2023-02-14T08:57:20.405Z,100101.22
2023-02-14T08:59:47.009Z,100187.09
2023-02-14T09:02:14.182Z,100001.81
2023-02-14T09:04:40.973Z,100138.91
2023-02-14T09:07:07.830Z,99955.94
2023-02-14T09:09:34.687Z,100215.66
2023-02-14T09:12:05.131Z,99991.69
2023-02-14T09:14:39.272Z,100201.19
2023-02-14T09:17:06.618Z,99972.34
2023-02-14T09:19:34.587Z,100166.56
2023-02-14T09:22:01.697Z,100062.63
2023-02-14T09:24:28.333Z,100054.13
2023-02-14T09:26:54.953Z,100090.19
2023-02-14T09:29:21.544Z,100149.09
2023-02-14T09:31:48.722Z,100053.97
2023-02-14T09:34:15.408Z,100132.81
2023-02-14T09:36:42.156Z,100163.59
2023-02-14T09:39:08.779Z,100112.28
2023-02-14T09:41:55.233Z,100062.81
2023-02-14T09:44:37.214Z,100189.41
2023-02-14T09:47:35.123Z,100124.50
2023-02-14T09:50:06.396Z,100187.22
2023-02-14T09:52:34.014Z,100190.00
2023-02-14T09:55:02.757Z,99866.38
2023-02-14T09:57:29.522Z,100187.06
2023-02-14T10:00:33.934Z,100195.88
2023-02-14T10:03:08.025Z,100127.81
2023-02-14T10:06:01.957Z,100051.31
2023-02-14T10:09:08.356Z,100186.53
2023-02-14T10:11:35.553Z,100133.53
2023-02-14T10:14:11.437Z,100146.69
2023-02-14T10:16:46.129Z,100139.09
2023-02-14T10:19:19.280Z,100199.44
2023-02-14T10:21:57.453Z,100156.31
2023-02-14T10:24:36.832Z,100130.38
2023-02-14T10:27:12.311Z,100190.63
2023-02-14T10:29:42.453Z,100100.59
2023-02-14T10:32:14.944Z,100059.06
2023-02-14T10:34:50.718Z,100071.22
2023-02-14T10:37:23.220Z,100178.16
2023-02-14T10:40:27.268Z,100177.69
2023-02-14T10:43:17.240Z,100105.47
2023-02-14T10:46:18.044Z,100166.81
2023-02-14T10:48:49.238Z,100089.50
2023-02-14T10:51:19.201Z,100159.97
2023-02-14T10:53:57.975Z,100166.28
2023-02-14T10:56:48.352Z,100043.66
2023-02-14T10:59:26.491Z,100148.00
2023-02-14T11:01:55.337Z,100146.94
2023-02-14T11:04:25.007Z,100096.69
2023-02-14T11:06:52.286Z,100146.91
2023-02-14T11:09:19.044Z,100106.19
2023-02-14T11:11:53.184Z,99986.84
2023-02-14T11:16:48.097Z,99989.63
2023-02-14T11:19:15.105Z,100144.34
2023-02-14T11:21:47.443Z,100070.28
2023-02-14T11:24:20.362Z,100063.50
2023-02-14T11:26:49.949Z,100012.03
2023-02-14T11:29:25.100Z,100097.13
2023-02-14T11:31:52.217Z,100058.44
2023-02-14T11:34:36.930Z,100016.69
2023-02-14T11:37:24.556Z,100120.22
2023-02-14T11:39:55.223Z,100033.00
2023-02-14T11:42:45.365Z,100126.09
2023-02-14T11:45:29.356Z,100122.81
2023-02-14T11:48:08.503Z,100117.97
2023-02-14T11:50:36.318Z,100049.69
2023-02-14T11:53:03.287Z,100108.22
2023-02-14T11:55:33.912Z,100098.28
2023-02-14T11:58:04.572Z,99783.06
2023-02-14T12:00:32.208Z,100078.91
2023-02-14T12:03:01.594Z,100071.56
2023-02-14T12:05:33.682Z,100098.19
2023-02-14T12:08:06.845Z,100092.44
2023-02-14T12:10:38.652Z,100090.13
2023-02-14T12:13:08.506Z,100090.13
2023-02-14T12:15:39.447Z,100088.38
2023-02-14T12:18:09.103Z,100085.75
2023-02-14T12:20:44.745Z,100075.44
2023-02-14T12:23:30.181Z,100041.88
2023-02-14T12:26:03.231Z,100038.84
2023-02-14T12:28:39.721Z,99990.91
2023-02-14T12:31:11.741Z,100061.31
2023-02-14T12:33:39.658Z,100022.41
2023-02-14T12:36:22.971Z,99981.25
2023-02-14T12:38:55.708Z,100053.75
2023-02-14T12:41:36.916Z,100049.47
2023-02-14T12:44:27.968Z,100049.50
2023-02-14T12:46:54.708Z,100050.69
2023-02-14T12:49:33.337Z,100045.00
2023-02-14T12:52:29.992Z,100041.66
2023-02-14T12:55:12.850Z,100040.97
2023-02-14T12:57:54.111Z,100024.88
2023-02-14T13:00:46.785Z,100027.84
2023-02-14T13:03:22.090Z,99990.94
2023-02-14T13:05:58.083Z,100028.38
2023-02-14T13:09:02.456Z,100018.94
2023-02-14T13:12:03.192Z,100011.81
2023-02-14T13:15:03.848Z,99966.16
2023-02-14T13:17:38.362Z,100002.19
2023-02-14T13:20:24.588Z,100004.38
2023-02-14T13:22:56.111Z,99938.91
2023-02-14T13:25:28.866Z,99995.00
2023-02-14T13:27:55.536Z,99913.47
2023-02-14T13:30:34.716Z,99982.66
2023-02-14T13:33:33.894Z,99978.91
2023-02-14T13:36:05.880Z,99867.47
2023-02-14T13:38:32.905Z,99954.03
2023-02-14T13:41:01.661Z,99964.41
2023-02-14T13:44:04.145Z,99954.84
2023-02-14T13:46:33.652Z,99953.78
2023-02-14T13:49:06.252Z,99954.84
2023-02-14T13:52:03.781Z,99924.31
2023-02-14T13:54:56.938Z,99951.34
2023-02-14T13:57:35.422Z,99947.75
2023-02-14T14:00:17.331Z,99960.28
2023-02-14T14:02:48.587Z,99924.09
2023-02-14T14:05:30.410Z,99951.72
2023-02-14T14:08:21.695Z,99955.22
2023-02-14T14:10:51.647Z,99924.19
2023-02-14T14:13:39.914Z,99958.03
2023-02-14T14:16:18.836Z,99946.66
2023-02-14T14:18:45.613Z,99941.56
2023-02-14T14:21:26.451Z,99817.25
2023-02-14T14:24:22.252Z,99932.56
2023-02-14T14:26:50.654Z,99906.78
2023-02-14T14:29:39.933Z,99937.66
2023-02-14T14:32:11.772Z,99834.72
2023-02-14T14:34:49.025Z,99933.94
2023-02-14T14:37:18.827Z,99937.38
2023-02-14T14:39:51.777Z,99925.63
2023-02-14T14:42:20.382Z,99927.53
2023-02-14T14:44:55.859Z,99930.28
2023-02-14T14:47:44.311Z,99746.16
2023-02-14T14:50:22.943Z,99897.34
2023-02-14T14:52:53.159Z,99844.13
2023-02-14T14:55:32.065Z,99879.56
2023-02-14T14:58:01.694Z,99848.34
2023-02-14T15:00:37.119Z,99916.16
2023-02-14T15:03:12.155Z,99916.00
2023-02-14T15:05:42.044Z,99829.34
2023-02-14T15:08:27.969Z,99909.09
2023-02-14T15:11:00.367Z,99921.19
2023-02-14T15:14:02.952Z,99509.91
2023-02-14T15:16:51.464Z,99868.19
2023-02-14T15:19:36.367Z,99910.81
2023-02-14T15:22:06.487Z,99812.91
2023-02-14T15:24:33.948Z,99885.22
2023-02-14T15:27:07.375Z,99856.03
2023-02-14T15:29:34.054Z,99804.00
2023-02-14T15:32:03.402Z,99791.88
2023-02-14T15:34:34.178Z,99513.91
2023-02-14T15:37:04.632Z,99840.94
2023-02-14T15:39:42.936Z,99621.78
2023-02-14T15:42:26.314Z,99890.31
2023-02-14T15:45:16.152Z,99890.31
2023-02-14T15:47:50.140Z,99808.19
2023-02-14T15:50:28.030Z,99888.53
2023-02-14T15:53:06.856Z,99877.50
2023-02-14T15:55:36.117Z,99796.31
2023-02-14T15:58:15.606Z,99779.72
2023-02-14T16:00:44.824Z,99839.75
2023-02-14T16:03:20.428Z,99886.84
2023-02-14T16:05:53.339Z,99470.13
2023-02-14T16:08:37.261Z,99774.81
2023-02-14T16:14:43.886Z,99404.78
2023-02-14T16:17:33.395Z,99410.59
2023-02-14T16:20:20.510Z,99839.97
2023-02-14T16:22:47.379Z,99674.75
2023-02-14T16:25:14.226Z,99832.66
2023-02-14T16:27:41.312Z,99667.66
2023-02-14T16:30:15.422Z,99758.84
2023-02-14T16:32:42.490Z,99804.28
2023-02-14T16:35:20.262Z,99840.53
2023-02-14T16:37:51.124Z,99644.63
2023-02-14T16:40:21.167Z,99852.44
2023-02-14T16:42:47.994Z,99551.72
2023-02-14T16:45:16.934Z,99888.44
2023-02-14T16:47:46.511Z,99857.22
2023-02-14T16:50:13.309Z,99622.63
2023-02-14T16:52:41.047Z,99886.00
2023-02-14T16:55:16.498Z,99823.28
2023-02-14T16:57:45.832Z,99676.75
2023-02-14T17:00:13.262Z,99843.75
2023-02-14T17:02:41.417Z,99828.22
2023-02-14T17:05:10.036Z,99819.84
2023-02-14T17:07:37.898Z,99623.91
2023-02-14T17:10:18.018Z,99829.84
2023-02-14T17:12:47.597Z,99620.84
2023-02-14T17:15:17.999Z,99885.66
2023-02-14T17:17:47.467Z,99787.53
2023-02-14T17:20:14.585Z,99641.31
2023-02-14T17:22:41.440Z,99727.63
2023-02-14T17:25:09.199Z,99837.91
2023-02-14T17:27:35.895Z,99825.28
2023-02-14T17:30:02.531Z,99787.88
2023-02-14T17:32:29.402Z,99845.91
2023-02-14T17:34:56.052Z,99837.38
2023-02-14T17:37:22.729Z,99725.47
2023-02-14T17:39:49.363Z,99780.06
2023-02-14T17:42:16.238Z,99788.66
2023-02-14T17:44:42.839Z,99753.56
2023-02-14T17:47:09.572Z,99809.56
2023-02-14T17:49:36.157Z,99854.56
2023-02-14T17:52:02.870Z,99831.47
2023-02-14T17:54:29.682Z,99886.22
2023-02-14T17:56:56.379Z,99796.34
2023-02-14T17:59:23.086Z,99836.19
2023-02-14T18:01:50.157Z,99777.63
2023-02-14T18:04:16.803Z,99780.81
2023-02-14T18:06:43.575Z,99601.53
2023-02-14T18:09:10.280Z,99769.97
2023-02-14T18:11:39.278Z,99842.34
2023-02-14T18:14:05.890Z,99787.44
2023-02-14T18:16:32.733Z,99775.06
2023-02-14T18:19:02.424Z,99830.28
2023-02-14T18:21:35.845Z,99827.81
2023-02-14T18:24:03.726Z,99830.53
2023-02-14T18:26:31.238Z,99751.81
2023-02-14T18:28:58.563Z,99817.59
2023-02-14T18:31:25.512Z,99599.69
2023-02-14T18:33:52.630Z,99878.06
2023-02-14T18:36:22.003Z,99822.78
2023-02-14T18:38:48.943Z,99883.09
2023-02-14T18:41:18.761Z,99819.47
2023-02-14T18:43:46.295Z,99833.38
2023-02-14T18:46:24.663Z,99876.38
2023-02-14T18:48:51.898Z,99798.31
2023-02-14T18:51:24.817Z,99737.59
2023-02-14T18:53:53.675Z,99667.13
2023-02-14T18:56:23.319Z,99870.66
2023-02-14T18:58:54.106Z,99755.13
2023-02-14T19:01:23.932Z,99548.91
2023-02-14T19:03:52.369Z,99837.13
2023-02-14T19:06:20.395Z,99873.56
2023-02-14T19:08:47.477Z,99764.09
2023-02-14T19:11:20.657Z,99870.78
2023-02-14T19:14:10.785Z,99681.34
2023-02-14T19:16:43.501Z,99833.19
2023-02-14T19:19:10.802Z,99706.69
2023-02-14T19:21:37.638Z,99724.34
2023-02-14T19:24:06.424Z,99482.38
2023-02-14T19:26:40.691Z,99804.53
2023-02-14T19:29:18.344Z,99805.22
2023-02-14T19:31:50.562Z,99569.50
2023-02-14T19:34:20.189Z,99766.78
2023-02-14T19:36:48.040Z,99818.88
2023-02-14T19:39:14.980Z,99505.72
2023-02-14T19:41:42.367Z,99770.56
2023-02-14T19:44:11.528Z,99750.72
2023-02-14T19:46:38.437Z,99841.31
2023-02-14T19:49:05.274Z,99755.69
2023-02-14T19:51:34.274Z,99877.41
2023-02-14T19:54:03.577Z,99861.16
2023-02-14T19:56:32.833Z,99542.59
2023-02-14T19:58:59.926Z,99828.75
2023-02-14T20:01:35.784Z,99818.28
2023-02-14T20:04:05.639Z,99867.91
2023-02-14T20:06:35.531Z,99853.06
2023-02-14T20:09:07.096Z,99840.69
2023-02-14T20:11:46.575Z,99584.31
2023-02-14T20:14:14.682Z,99786.44
2023-02-14T20:16:44.761Z,99829.06
2023-02-14T20:19:15.372Z,99782.38
2023-02-14T20:21:46.451Z,99872.06
2023-02-14T20:24:17.217Z,99532.41
2023-02-14T20:26:44.828Z,99787.63
2023-02-14T20:29:11.480Z,99842.25
2023-02-14T20:31:44.907Z,99875.06
2023-02-14T20:34:12.499Z,99871.88
2023-02-14T20:36:40.194Z,99715.91
2023-02-14T20:39:08.699Z,99864.38
2023-02-14T20:41:35.412Z,99775.13
2023-02-14T20:44:09.953Z,99767.50
2023-02-14T20:46:36.815Z,99796.56
2023-02-14T20:49:04.139Z,99849.16
2023-02-14T20:51:31.302Z,99798.91
2023-02-14T20:53:57.957Z,99805.03
2023-02-14T20:56:24.965Z,99740.22
2023-02-14T20:58:52.900Z,99780.13
2023-02-14T21:01:21.995Z,99776.81
2023-02-14T21:03:51.002Z,99828.41
2023-02-14T21:06:23.680Z,99835.34
2023-02-14T21:08:50.666Z,99791.81
2023-02-14T21:11:19.092Z,99741.63
2023-02-14T21:13:46.125Z,99815.84
2023-02-14T21:16:19.416Z,99819.22
2023-02-14T21:18:50.788Z,99762.75
2023-02-14T21:21:35.066Z,99736.44
2023-02-14T21:24:04.764Z,99829.06
2023-02-14T21:26:31.443Z,99783.84
2023-02-14T21:28:58.256Z,99730.59
2023-02-14T21:31:25.501Z,99772.69
2023-02-14T21:33:55.158Z,99829.81
2023-02-14T21:36:24.118Z,99820.69
2023-02-14T21:38:54.754Z,99706.50
2023-02-14T21:41:23.364Z,99786.34
2023-02-14T21:43:53.172Z,99837.78
2023-02-14T21:46:22.736Z,99834.53
2023-02-14T21:48:49.414Z,99757.84
2023-02-14T21:51:16.827Z,99811.41
2023-02-14T21:53:44.266Z,99496.88
2023-02-14T21:56:12.368Z,99784.03
2023-02-14T21:58:39.033Z,99736.88
2023-02-14T22:01:06.974Z,99808.53
2023-02-14T22:03:34.281Z,99805.28
2023-02-14T22:06:05.541Z,99744.94
2023-02-14T22:08:32.534Z,99691.41
2023-02-14T22:11:00.370Z,99794.34
2023-02-14T22:13:27.226Z,99721.94
2023-02-14T22:15:53.908Z,99663.84
2023-02-14T22:18:20.543Z,99431.72
2023-02-14T22:20:47.117Z,99471.28
2023-02-14T22:23:13.866Z,99752.53
2023-02-14T22:25:40.484Z,99721.69
2023-02-14T22:28:07.197Z,99682.06
2023-02-14T22:30:33.789Z,99696.38
2023-02-14T22:33:00.470Z,99753.53
2023-02-14T22:35:27.072Z,99739.19
2023-02-14T22:37:53.914Z,99769.16
2023-02-14T22:40:20.622Z,99771.41
2023-02-14T22:42:47.520Z,99653.94
2023-02-14T22:45:14.410Z,99682.69
2023-02-14T22:47:41.023Z,99703.09
2023-02-14T22:50:08.978Z,99682.97
2023-02-14T22:52:35.753Z,99726.22
2023-02-14T22:55:02.372Z,99735.19
2023-02-14T22:57:31.165Z,99692.56
2023-02-14T22:59:57.908Z,99624.00
2023-02-14T23:02:24.652Z,99728.16
2023-02-14T23:04:51.243Z,99734.34
2023-02-14T23:07:17.878Z,99704.13
2023-02-14T23:09:44.512Z,99677.84
2023-02-14T23:12:11.230Z,99683.78
2023-02-14T23:14:49.720Z,99737.78
2023-02-14T23:17:25.094Z,99721.19
2023-02-14T23:19:52.883Z,99658.19
2023-02-14T23:22:22.656Z,99755.63
2023-02-14T23:24:51.996Z,99763.69
2023-02-14T23:27:24.114Z,99758.69
2023-02-14T23:29:50.864Z,99637.50
2023-02-14T23:32:17.623Z,99764.00
2023-02-14T23:34:44.957Z,99757.06
2023-02-14T23:37:13.087Z,99718.94
2023-02-14T23:39:40.125Z,99684.53
2023-02-14T23:42:10.397Z,99761.41
2023-02-14T23:44:37.282Z,99759.84
2023-02-14T23:47:05.876Z,99711.91
2023-02-14T23:49:34.458Z,99694.72
2023-02-14T23:52:01.885Z,99712.00
2023-02-14T23:54:28.638Z,99721.84
2023-02-14T23:56:55.835Z,99750.47
2023-02-14T23:59:22.599Z,99717.44
